createdAt,value
2018-04-27T00:01:48.387Z,1.10
2018-04-27T00:04:15.081Z,1.50
2018-04-27T00:06:41.802Z,1.00
2018-04-27T00:09:08.481Z,1.30
2018-04-27T00:11:35.212Z,1.00
2018-04-27T00:14:01.924Z,1.13
2018-04-27T00:16:30.142Z,1.03
2018-04-27T00:18:56.838Z,1.10
2018-04-27T00:21:23.503Z,1.10
2018-04-27T00:23:50.912Z,1.30
2018-04-27T00:26:17.602Z,1.50
2018-04-27T00:28:45.384Z,1.00
2018-04-27T00:31:12.072Z,1.63
2018-04-27T00:33:38.793Z,1.20
2018-04-27T00:36:06.999Z,1.20
2018-04-27T00:38:33.711Z,1.17
2018-04-27T00:41:15.334Z,1.10
2018-04-27T00:43:44.007Z,1.13
2018-04-27T00:46:12.680Z,1.40
2018-04-27T00:48:41.499Z,1.70
2018-04-27T00:51:08.236Z,1.70
2018-04-27T00:53:36.552Z,1.30
2018-04-27T00:56:12.647Z,2.03
2018-04-27T00:58:39.354Z,1.37
2018-04-27T01:01:07.354Z,1.20
2018-04-27T01:03:34.114Z,1.97
2018-04-27T01:06:01.781Z,1.20
2018-04-27T01:08:29.260Z,1.57
2018-04-27T01:10:57.461Z,1.43
2018-04-27T01:13:24.202Z,1.13
2018-04-27T01:15:52.539Z,1.17
2018-04-27T01:18:19.282Z,1.10
2018-04-27T01:20:46.029Z,1.33
2018-04-27T01:23:12.809Z,1.20
2018-04-27T01:25:40.140Z,0.93
2018-04-27T01:28:07.677Z,1.10
2018-04-27T01:30:34.406Z,1.80
2018-04-27T01:33:01.182Z,1.17
2018-04-27T01:35:27.907Z,1.37
2018-04-27T01:37:56.243Z,1.87
2018-04-27T01:40:26.851Z,1.80
2018-04-27T01:42:54.365Z,1.33
2018-04-27T01:45:21.134Z,1.47
2018-04-27T01:47:49.186Z,1.30
2018-04-27T01:50:15.915Z,1.50
2018-04-27T01:52:46.033Z,1.43
2018-04-27T01:55:13.459Z,1.80
2018-04-27T01:57:41.607Z,1.57
2018-04-27T02:00:08.281Z,1.73
2018-04-27T02:02:35.116Z,1.17
2018-04-27T02:05:05.285Z,1.50
2018-04-27T02:07:32.087Z,1.63
2018-04-27T02:10:02.467Z,1.37
2018-04-27T02:12:32.380Z,1.20
2018-04-27T02:14:59.726Z,1.67
2018-04-27T02:17:26.423Z,1.73
2018-04-27T02:19:53.231Z,1.37
2018-04-27T02:22:22.506Z,1.40
2018-04-27T02:24:49.273Z,1.57
2018-04-27T02:30:49.145Z,1.40
2018-04-27T02:33:15.997Z,1.50
2018-04-27T02:35:44.617Z,1.60
2018-04-27T02:38:12.220Z,1.70
2018-04-27T02:40:39.095Z,1.63
2018-04-27T02:43:06.622Z,1.30
2018-04-27T02:45:33.819Z,1.90
2018-04-27T02:48:03.404Z,1.50
2018-04-27T02:50:30.103Z,1.60
2018-04-27T02:52:59.796Z,0.97
2018-04-27T02:55:33.213Z,1.50
2018-04-27T02:58:05.306Z,1.90
2018-04-27T03:00:40.111Z,1.80
2018-04-27T03:03:07.019Z,1.70
2018-04-27T03:05:33.698Z,1.53
2018-04-27T03:08:00.403Z,1.70
2018-04-27T03:10:30.161Z,1.27
2018-04-27T03:12:56.904Z,1.70
2018-04-27T03:15:23.646Z,1.90
2018-04-27T03:17:53.740Z,1.50
2018-04-27T03:20:20.796Z,1.70
2018-04-27T03:22:47.523Z,1.90
2018-04-27T03:25:15.259Z,1.87
2018-04-27T03:27:42.005Z,2.00
2018-04-27T03:30:09.542Z,2.10
2018-04-27T03:32:36.432Z,2.10
2018-04-27T03:35:03.196Z,1.57
2018-04-27T03:37:29.887Z,2.00
2018-04-27T03:39:58.486Z,1.77
2018-04-27T03:42:25.189Z,2.37
2018-04-27T03:44:53.428Z,1.90
2018-04-27T03:47:22.581Z,2.03
2018-04-27T03:49:49.291Z,1.90
2018-04-27T03:52:16.713Z,2.07
2018-04-27T03:54:43.441Z,1.80
2018-04-27T03:57:10.176Z,2.37
2018-04-27T03:59:42.758Z,1.47
2018-04-27T04:02:15.195Z,2.17
2018-04-27T04:04:48.497Z,1.87
2018-04-27T04:07:15.585Z,2.93
2018-04-27T04:09:42.288Z,2.20
2018-04-27T04:12:11.350Z,1.90
2018-04-27T04:14:38.846Z,2.43
2018-04-27T04:17:06.394Z,2.70
2018-04-27T04:19:33.132Z,3.27
2018-04-27T04:22:00.539Z,3.07
2018-04-27T04:24:27.309Z,2.67
2018-04-27T04:26:54.005Z,3.20
2018-04-27T04:29:20.748Z,2.47
2018-04-27T04:31:48.913Z,2.43
2018-04-27T04:34:15.583Z,3.80
2018-04-27T04:36:42.348Z,3.70
2018-04-27T04:39:09.032Z,4.13
2018-04-27T04:41:36.588Z,2.97
2018-04-27T04:44:03.926Z,3.60
2018-04-27T04:46:30.661Z,3.10
2018-04-27T04:48:58.719Z,2.93
2018-04-27T04:51:25.427Z,3.07
2018-04-27T04:53:52.167Z,4.00
2018-04-27T04:56:18.870Z,3.63
2018-04-27T04:58:45.690Z,3.47
2018-04-27T05:01:12.364Z,3.73
2018-04-27T05:03:39.105Z,4.23
2018-04-27T05:06:05.859Z,3.70
2018-04-27T05:08:33.261Z,3.97
2018-04-27T05:10:59.949Z,3.70
2018-04-27T05:13:26.717Z,4.63
2018-04-27T05:15:53.414Z,4.17
2018-04-27T05:18:25.707Z,4.07
2018-04-27T05:20:52.392Z,4.07
2018-04-27T05:23:19.061Z,4.00
2018-04-27T05:25:45.764Z,4.03
2018-04-27T05:28:13.012Z,3.70
2018-04-27T05:30:39.687Z,4.67
2018-04-27T05:33:06.372Z,4.20
2018-04-27T05:35:33.030Z,3.60
2018-04-27T05:37:59.727Z,4.27
2018-04-27T05:40:26.427Z,4.37
2018-04-27T05:42:53.582Z,4.70
2018-04-27T05:45:20.342Z,5.47
2018-04-27T05:47:47.109Z,5.23
2018-04-27T05:50:13.836Z,3.93
2018-04-27T05:52:40.541Z,3.70
2018-04-27T05:55:07.252Z,4.70
2018-04-27T05:57:33.920Z,4.40
2018-04-27T06:00:01.052Z,3.93
2018-04-27T06:02:27.803Z,4.13
2018-04-27T06:04:54.505Z,4.03
2018-04-27T06:07:21.198Z,4.20
2018-04-27T06:09:47.865Z,3.90
2018-04-27T06:12:15.409Z,4.10
2018-04-27T06:14:42.082Z,4.17
2018-04-27T06:17:08.802Z,4.90
2018-04-27T06:19:35.492Z,3.93
2018-04-27T06:22:02.403Z,4.20
2018-04-27T06:24:29.096Z,3.80
2018-04-27T06:26:55.815Z,3.80
2018-04-27T06:29:22.553Z,4.30
2018-04-27T06:31:49.329Z,4.03
2018-04-27T06:34:16.562Z,4.90
2018-04-27T06:36:43.257Z,3.93
2018-04-27T06:39:09.970Z,4.17
2018-04-27T06:41:36.662Z,3.33
2018-04-27T06:44:03.357Z,4.40
2018-04-27T06:46:30.053Z,3.27
2018-04-27T06:48:57.717Z,4.03
2018-04-27T06:51:25.471Z,4.30
2018-04-27T06:53:52.176Z,3.43
2018-04-27T06:56:18.947Z,3.73
2018-04-27T06:58:45.677Z,3.83
2018-04-27T07:01:12.414Z,4.27
2018-04-27T07:03:39.835Z,4.67
2018-04-27T07:06:07.429Z,4.50
2018-04-27T07:08:34.892Z,3.70
2018-04-27T07:11:01.562Z,4.23
2018-04-27T07:13:28.257Z,3.10
2018-04-27T07:15:55.007Z,4.87
2018-04-27T07:18:21.697Z,3.40
2018-04-27T07:20:48.415Z,3.93
2018-04-27T07:23:15.122Z,3.03
2018-04-27T07:25:41.824Z,2.47
2018-04-27T07:28:09.020Z,2.47
2018-04-27T07:30:35.700Z,3.60
2018-04-27T07:33:02.392Z,3.07
2018-04-27T07:35:29.675Z,3.90
2018-04-27T07:37:56.452Z,4.40
2018-04-27T07:40:23.192Z,3.50
2018-04-27T07:42:49.852Z,2.60
2018-04-27T07:45:16.571Z,2.93
2018-04-27T07:47:43.961Z,3.67
2018-04-27T07:50:10.655Z,2.93
2018-04-27T07:52:37.386Z,2.50
2018-04-27T07:55:04.217Z,3.60
2018-04-27T07:57:30.922Z,3.20
2018-04-27T07:59:57.595Z,2.53
2018-04-27T08:02:24.482Z,2.63
2018-04-27T08:04:51.124Z,3.00
2018-04-27T08:07:18.475Z,3.00
2018-04-27T08:09:45.274Z,2.43
2018-04-27T08:12:11.946Z,2.47
2018-04-27T08:14:38.632Z,3.10
2018-04-27T08:17:05.373Z,3.37
2018-04-27T08:19:32.062Z,2.20
2018-04-27T08:21:58.766Z,2.17
2018-04-27T08:24:25.496Z,2.73
2018-04-27T08:26:55.235Z,2.77
2018-04-27T08:29:21.975Z,2.70
2018-04-27T08:31:48.695Z,3.00
2018-04-27T08:34:15.451Z,2.43
2018-04-27T08:36:42.203Z,2.23
2018-04-27T08:39:08.927Z,2.10
2018-04-27T08:41:35.628Z,2.80
2018-04-27T08:44:02.349Z,2.63
2018-04-27T08:46:29.092Z,2.43
2018-04-27T08:48:55.768Z,1.93
2018-04-27T08:51:22.496Z,2.73
2018-04-27T08:53:49.292Z,2.70
2018-04-27T08:56:17.700Z,2.37
2018-04-27T08:58:44.393Z,2.60
2018-04-27T09:01:11.122Z,2.27
2018-04-27T09:03:38.659Z,2.77
2018-04-27T09:06:06.009Z,2.13
2018-04-27T09:08:35.478Z,2.57
2018-04-27T09:11:02.648Z,2.60
2018-04-27T09:13:29.332Z,3.73
2018-04-27T09:15:56.791Z,2.53
2018-04-27T09:18:23.521Z,2.50
2018-04-27T09:20:50.195Z,3.13
2018-04-27T09:23:16.915Z,3.13
2018-04-27T09:25:43.602Z,3.27
2018-04-27T09:28:10.294Z,2.90
2018-04-27T09:30:37.059Z,2.40
2018-04-27T09:33:03.894Z,3.03
2018-04-27T09:35:30.616Z,2.90
2018-04-27T09:37:58.060Z,2.10
2018-04-27T09:40:24.780Z,2.40
2018-04-27T09:42:51.481Z,2.90
2018-04-27T09:45:18.196Z,1.87
2018-04-27T09:47:44.913Z,2.23
2018-04-27T09:50:11.574Z,2.37
2018-04-27T09:52:38.338Z,3.07
2018-04-27T09:55:05.008Z,2.30
2018-04-27T09:57:31.729Z,2.27
2018-04-27T09:59:58.583Z,3.10
2018-04-27T10:02:25.276Z,1.80
2018-04-27T10:04:52.009Z,2.00
2018-04-27T10:07:18.707Z,2.57
2018-04-27T10:09:45.430Z,1.70
2018-04-27T10:12:12.179Z,1.33
2018-04-27T10:14:38.865Z,1.53
2018-04-27T10:17:05.588Z,1.50
2018-04-27T10:19:32.258Z,2.17
2018-04-27T10:21:59.120Z,1.43
2018-04-27T10:24:25.819Z,1.80
2018-04-27T10:26:52.547Z,3.07
2018-04-27T10:29:19.226Z,2.10
2018-04-27T10:31:45.943Z,1.47
2018-04-27T10:34:12.613Z,1.80
2018-04-27T10:36:39.400Z,1.70
2018-04-27T10:39:06.127Z,1.53
2018-04-27T10:41:32.916Z,1.90
2018-04-27T10:43:59.631Z,2.83
2018-04-27T10:46:26.341Z,1.33
2018-04-27T10:48:53.074Z,1.30
2018-04-27T10:51:19.762Z,2.27
2018-04-27T10:53:49.186Z,1.50
2018-04-27T10:56:15.894Z,1.77
2018-04-27T10:58:42.567Z,2.07
2018-04-27T11:01:09.257Z,1.60
2018-04-27T11:03:35.941Z,2.03
2018-04-27T11:06:02.666Z,1.67
2018-04-27T11:08:29.338Z,1.67
2018-04-27T11:10:56.053Z,1.63
2018-04-27T11:13:22.756Z,2.90
2018-04-27T11:15:49.613Z,1.63
2018-04-27T11:18:16.283Z,1.80
2018-04-27T11:20:43.022Z,1.90
2018-04-27T11:23:09.699Z,1.40
2018-04-27T11:25:36.416Z,1.60
2018-04-27T11:28:03.115Z,2.00
2018-04-27T11:30:30.295Z,1.33
2018-04-27T11:32:57.013Z,1.40
2018-04-27T11:35:23.696Z,1.60
2018-04-27T11:37:50.382Z,1.30
2018-04-27T11:40:17.050Z,1.47
2018-04-27T11:42:43.794Z,1.63
2018-04-27T11:45:10.484Z,1.73
2018-04-27T11:47:37.302Z,1.37
2018-04-27T11:50:04.065Z,1.77
2018-04-27T11:52:30.754Z,1.07
2018-04-27T11:54:57.465Z,1.43
2018-04-27T11:57:24.129Z,1.40
2018-04-27T11:59:52.639Z,1.57
2018-04-27T12:02:19.338Z,1.60
2018-04-27T12:04:46.077Z,1.90
2018-04-27T12:07:12.764Z,1.40
2018-04-27T12:09:39.481Z,1.73
2018-04-27T12:12:06.151Z,1.30
2018-04-27T12:14:32.936Z,1.50
2018-04-27T12:16:59.744Z,1.10
2018-04-27T12:19:26.459Z,1.40
2018-04-27T12:21:53.235Z,1.40
2018-04-27T12:24:19.967Z,1.20
2018-04-27T12:26:46.676Z,1.47
2018-04-27T12:29:13.364Z,1.40
2018-04-27T12:31:40.167Z,1.17
2018-04-27T12:34:06.774Z,1.60
2018-04-27T12:36:33.539Z,1.83
2018-04-27T12:39:00.215Z,1.43
2018-04-27T12:41:26.928Z,2.30
2018-04-27T12:43:53.670Z,1.90
2018-04-27T12:46:20.390Z,1.50
2018-04-27T12:48:47.112Z,1.73
2018-04-27T12:51:13.788Z,1.70
2018-04-27T12:53:40.524Z,1.33
2018-04-27T12:56:07.225Z,1.60
2018-04-27T12:58:33.992Z,1.53
2018-04-27T13:01:00.685Z,1.40
2018-04-27T13:03:27.410Z,1.50
2018-04-27T13:05:54.126Z,1.23
2018-04-27T13:08:20.839Z,1.17
2018-04-27T13:10:47.533Z,1.40
2018-04-27T13:13:14.244Z,1.20
2018-04-27T13:15:40.976Z,1.60
2018-04-27T13:18:07.685Z,1.07
2018-04-27T13:20:34.397Z,1.30
2018-04-27T13:23:01.158Z,1.13
2018-04-27T13:25:28.000Z,1.50
2018-04-27T13:27:54.703Z,1.40
2018-04-27T13:30:24.070Z,1.53
2018-04-27T13:32:50.952Z,1.20
2018-04-27T13:35:17.910Z,1.17
2018-04-27T13:37:44.614Z,1.43
2018-04-27T13:40:11.323Z,1.83
2018-04-27T13:42:38.062Z,1.33
2018-04-27T13:45:04.746Z,1.27
2018-04-27T13:47:31.418Z,1.57
2018-04-27T13:49:58.127Z,1.07
2018-04-27T13:52:24.796Z,1.50
2018-04-27T13:54:51.526Z,1.40
2018-04-27T13:57:18.236Z,1.10
2018-04-27T13:59:44.952Z,1.67
2018-04-27T14:02:11.655Z,1.40
2018-04-27T14:04:38.367Z,2.77
2018-04-27T14:07:05.136Z,1.20
2018-04-27T14:09:31.809Z,1.73
2018-04-27T14:11:58.535Z,1.10
2018-04-27T14:14:25.205Z,1.10
2018-04-27T14:16:51.889Z,1.30
2018-04-27T14:19:19.444Z,1.30
2018-04-27T14:21:46.151Z,0.90
2018-04-27T14:24:12.815Z,1.83
2018-04-27T14:26:39.492Z,0.90
2018-04-27T14:29:06.158Z,1.00
2018-04-27T14:31:32.859Z,0.63
2018-04-27T14:33:59.561Z,1.00
2018-04-27T14:36:26.287Z,1.47
2018-04-27T14:38:52.981Z,0.80
2018-04-27T14:41:19.658Z,0.97
2018-04-27T14:43:46.359Z,0.97
2018-04-27T14:46:13.035Z,0.80
2018-04-27T14:48:39.783Z,0.97
2018-04-27T14:51:06.461Z,0.50
2018-04-27T14:53:33.148Z,0.97
2018-04-27T14:55:59.815Z,0.67
2018-04-27T14:58:26.559Z,0.53
2018-04-27T15:00:53.277Z,1.30
2018-04-27T15:03:20.102Z,1.40
2018-04-27T15:05:46.843Z,0.70
2018-04-27T15:08:13.551Z,1.00
2018-04-27T15:10:40.308Z,0.60
2018-04-27T15:13:06.997Z,0.70
2018-04-27T15:15:33.699Z,1.03
2018-04-27T15:18:00.374Z,1.10
2018-04-27T15:20:27.111Z,0.90
2018-04-27T15:22:53.800Z,0.90
2018-04-27T15:25:20.909Z,1.00
2018-04-27T15:27:47.713Z,0.70
2018-04-27T15:30:14.412Z,0.90
2018-04-27T15:32:41.706Z,1.10
2018-04-27T15:35:08.431Z,3.63
2018-04-27T15:37:35.165Z,3.43
2018-04-27T15:40:01.907Z,5.00
2018-04-27T15:42:28.647Z,7.43
2018-04-27T15:44:55.347Z,1.57
2018-04-27T15:47:23.959Z,1.07
2018-04-27T15:49:50.671Z,1.40
2018-04-27T15:52:17.458Z,1.03
2018-04-27T15:54:44.430Z,1.30
2018-04-27T15:57:11.161Z,2.17
2018-04-27T15:59:37.880Z,1.40
2018-04-27T16:02:04.580Z,1.47
2018-04-27T16:04:31.302Z,1.00
2018-04-27T16:06:58.003Z,0.70
2018-04-27T16:09:24.857Z,0.90
2018-04-27T16:11:51.558Z,0.50
2018-04-27T16:14:18.241Z,0.90
2018-04-27T16:16:44.945Z,0.83
2018-04-27T16:19:12.115Z,0.90
2018-04-27T16:21:38.812Z,0.80
2018-04-27T16:24:05.503Z,0.90
2018-04-27T16:26:32.227Z,0.80
2018-04-27T16:28:58.951Z,0.97
2018-04-27T16:31:25.630Z,0.87
2018-04-27T16:33:52.433Z,0.70
2018-04-27T16:36:19.258Z,0.80
2018-04-27T16:38:45.958Z,0.70
2018-04-27T16:41:12.730Z,1.13
2018-04-27T16:43:39.479Z,0.70
2018-04-27T16:46:06.187Z,1.30
2018-04-27T16:48:33.666Z,1.00
2018-04-27T16:51:00.375Z,0.90
2018-04-27T16:53:27.062Z,1.27
2018-04-27T16:55:53.788Z,1.03
2018-04-27T16:58:20.458Z,1.63
2018-04-27T17:00:48.063Z,1.43
2018-04-27T17:03:14.759Z,1.00
2018-04-27T17:05:41.628Z,1.13
2018-04-27T17:08:08.359Z,1.10
2018-04-27T17:10:35.064Z,0.90
2018-04-27T17:13:01.786Z,1.20
2018-04-27T17:15:28.498Z,1.17
2018-04-27T17:17:55.283Z,1.00
2018-04-27T17:20:22.381Z,0.97
2018-04-27T17:22:49.207Z,0.97
2018-04-27T17:25:15.881Z,1.17
2018-04-27T17:27:42.691Z,1.03
2018-04-27T17:30:09.618Z,1.20
2018-04-27T17:32:36.312Z,1.20
2018-04-27T17:35:03.160Z,1.60
2018-04-27T17:37:29.786Z,1.07
2018-04-27T17:39:56.518Z,1.80
2018-04-27T17:42:23.204Z,1.57
2018-04-27T17:44:49.954Z,1.10
2018-04-27T17:47:16.641Z,1.37
2018-04-27T17:49:44.249Z,1.00
2018-04-27T17:52:11.024Z,1.23
2018-04-27T17:54:37.735Z,1.70
2018-04-27T17:57:04.435Z,1.30
2018-04-27T17:59:31.154Z,1.00
2018-04-27T18:01:57.850Z,1.20
2018-04-27T18:04:24.562Z,0.97
2018-04-27T18:06:51.310Z,1.10
2018-04-27T18:09:18.034Z,1.10
2018-04-27T18:11:44.777Z,0.80
2018-04-27T18:14:11.477Z,1.07
2018-04-27T18:16:38.301Z,1.20
2018-04-27T18:19:04.949Z,1.17
2018-04-27T18:21:31.638Z,1.30
2018-04-27T18:23:58.351Z,1.23
2018-04-27T18:26:25.034Z,1.07
2018-04-27T18:28:51.739Z,0.93
2018-04-27T18:31:18.431Z,1.10
2018-04-27T18:33:45.126Z,1.00
2018-04-27T18:36:11.826Z,1.53
2018-04-27T18:38:38.578Z,0.87
2018-04-27T18:41:05.258Z,1.27
2018-04-27T18:43:31.949Z,1.03
2018-04-27T18:45:59.456Z,2.13
2018-04-27T18:48:26.144Z,1.30
2018-04-27T18:50:53.018Z,1.10
2018-04-27T18:53:19.569Z,1.20
2018-04-27T18:55:46.285Z,1.50
2018-04-27T18:58:12.966Z,1.83
2018-04-27T19:00:39.808Z,1.10
2018-04-27T19:03:06.520Z,1.40
2018-04-27T19:05:33.204Z,1.20
2018-04-27T19:08:00.782Z,1.33
2018-04-27T19:10:35.566Z,1.57
2018-04-27T19:13:02.269Z,1.23
2018-04-27T19:15:29.009Z,1.20
2018-04-27T19:17:57.619Z,1.53
2018-04-27T19:20:24.318Z,1.43
2018-04-27T19:22:50.996Z,1.00
2018-04-27T19:25:17.713Z,1.30
2018-04-27T19:27:44.389Z,1.13
2018-04-27T19:30:11.158Z,1.30
2018-04-27T19:32:37.822Z,1.00
2018-04-27T19:35:04.534Z,1.57
2018-04-27T19:37:31.241Z,2.37
2018-04-27T19:39:57.951Z,1.20
2018-04-27T19:42:24.668Z,1.37
2018-04-27T19:44:51.354Z,1.37
2018-04-27T19:47:18.090Z,1.13
2018-04-27T19:49:44.806Z,1.40
2018-04-27T19:52:11.484Z,1.10
2018-04-27T19:54:38.205Z,1.20
2018-04-27T19:57:04.928Z,1.37
2018-04-27T19:59:31.666Z,1.20
2018-04-27T20:01:58.402Z,1.30
2018-04-27T20:04:25.094Z,1.30
2018-04-27T20:06:51.809Z,1.50
2018-04-27T20:09:18.481Z,1.57
2018-04-27T20:11:45.209Z,1.60
2018-04-27T20:14:26.828Z,1.50
2018-04-27T20:16:53.571Z,1.60
2018-04-27T20:19:20.299Z,3.10
2018-04-27T20:21:47.003Z,1.37
2018-04-27T20:24:13.724Z,1.53
2018-04-27T20:26:40.411Z,2.20
2018-04-27T20:29:07.104Z,1.97
2018-04-27T20:31:33.794Z,2.63
2018-04-27T20:34:00.490Z,1.80
2018-04-27T20:36:27.155Z,1.73
2018-04-27T20:38:54.075Z,1.70
2018-04-27T20:41:20.756Z,1.73
2018-04-27T20:43:48.219Z,3.60
2018-04-27T20:46:17.728Z,3.60
2018-04-27T20:48:44.411Z,3.40
2018-04-27T20:51:11.240Z,4.23
2018-04-27T20:53:40.733Z,3.37
2018-04-27T20:56:07.444Z,4.60
2018-04-27T20:58:34.132Z,3.87
2018-04-27T21:01:00.838Z,4.10
2018-04-27T21:03:27.564Z,3.40
2018-04-27T21:05:54.226Z,5.00
2018-04-27T21:08:21.015Z,3.60
2018-04-27T21:10:47.689Z,3.70
2018-04-27T21:13:14.493Z,3.80
2018-04-27T21:15:41.147Z,3.10
2018-04-27T21:18:08.017Z,2.90
2018-04-27T21:20:34.722Z,3.13
2018-04-27T21:23:01.397Z,2.50
2018-04-27T21:25:30.805Z,3.53
2018-04-27T21:27:57.473Z,2.73
2018-04-27T21:30:24.154Z,2.17
2018-04-27T21:32:50.860Z,2.00
2018-04-27T21:35:17.547Z,2.07
2018-04-27T21:37:48.215Z,2.43
2018-04-27T21:40:14.891Z,2.90
2018-04-27T21:42:41.645Z,2.43
2018-04-27T21:45:08.335Z,3.10
2018-04-27T21:47:35.037Z,1.80
2018-04-27T21:50:03.555Z,1.93
2018-04-27T21:52:30.251Z,2.53
2018-04-27T21:54:56.913Z,1.70
2018-04-27T21:57:25.558Z,2.30
2018-04-27T22:02:45.058Z,2.00
2018-04-27T22:05:11.773Z,3.20
2018-04-27T22:07:38.433Z,2.63
2018-04-27T22:10:05.110Z,3.67
2018-04-27T22:12:32.480Z,2.10
2018-04-27T22:14:59.136Z,2.00
2018-04-27T22:17:27.672Z,1.73
2018-04-27T22:19:54.291Z,1.67
2018-04-27T22:22:21.006Z,2.30
2018-04-27T22:24:48.585Z,1.90
2018-04-27T22:27:15.301Z,1.83
2018-04-27T22:29:42.736Z,1.37
2018-04-27T22:32:19.332Z,1.50
2018-04-27T22:34:45.991Z,2.00
2018-04-27T22:37:13.019Z,1.70
2018-04-27T22:39:40.555Z,1.60
2018-04-27T22:42:07.264Z,2.60
2018-04-27T22:44:51.614Z,1.50
2018-04-27T22:47:33.165Z,2.30
2018-04-27T22:50:00.640Z,2.37
2018-04-27T22:52:28.086Z,2.43
2018-04-27T22:54:54.761Z,1.80
2018-04-27T22:57:39.123Z,2.00
2018-04-27T23:00:07.560Z,1.40
2018-04-27T23:02:34.240Z,1.70
2018-04-27T23:05:02.815Z,2.03
2018-04-27T23:07:32.309Z,1.67
2018-04-27T23:09:58.988Z,1.40
2018-04-27T23:12:26.447Z,1.80
2018-04-27T23:14:53.165Z,1.40
2018-04-27T23:17:19.851Z,1.63
2018-04-27T23:19:48.389Z,2.00
2018-04-27T23:22:20.905Z,1.90
2018-04-27T23:24:47.625Z,1.63
2018-04-27T23:27:14.346Z,1.70
2018-04-27T23:29:41.099Z,1.70
2018-04-27T23:32:07.778Z,3.07
2018-04-27T23:34:34.487Z,1.87
2018-04-27T23:37:01.199Z,1.60
2018-04-27T23:39:27.933Z,2.03
2018-04-27T23:41:54.686Z,2.07
2018-04-27T23:44:21.405Z,2.60
2018-04-27T23:46:48.083Z,4.00
2018-04-27T23:49:14.789Z,4.07
2018-04-27T23:51:41.474Z,3.13
2018-04-27T23:54:08.294Z,2.47
2018-04-27T23:56:35.741Z,3.03
2018-04-27T23:59:02.471Z,2.23
